sensor_id;sensor_type;location;lat;lon;timestamp;temperature;humidity
5136;DHT22;2586;48.710;9.202;2023-03-21T00:02:03;8.70;1.00
5136;DHT22;2586;48.710;9.202;2023-03-21T00:04:29;8.70;1.00
5136;DHT22;2586;48.710;9.202;2023-03-21T00:06:55;8.70;1.00
5136;DHT22;2586;48.710;9.202;2023-03-21T00:09:21;8.80;1.00
5136;DHT22;2586;48.710;9.202;2023-03-21T00:11:47;8.80;1.00
5136;DHT22;2586;48.710;9.202;2023-03-21T00:14:13;8.70;1.00
5136;DHT22;2586;48.710;9.202;2023-03-21T00:16:43;8.70;1.00
5136;DHT22;2586;48.710;9.202;2023-03-21T00:19:10;8.70;1.00
5136;DHT22;2586;48.710;9.202;2023-03-21T00:21:36;8.70;1.00
5136;DHT22;2586;48.710;9.202;2023-03-21T00:24:04;8.80;1.00
5136;DHT22;2586;48.710;9.202;2023-03-21T00:26:30;8.80;1.00
5136;DHT22;2586;48.710;9.202;2023-03-21T00:28:56;8.80;1.00
5136;DHT22;2586;48.710;9.202;2023-03-21T00:31:22;8.80;1.00
5136;DHT22;2586;48.710;9.202;2023-03-21T00:33:48;8.80;1.00
5136;DHT22;2586;48.710;9.202;2023-03-21T00:36:13;8.90;1.00
5136;DHT22;2586;48.710;9.202;2023-03-21T00:38:40;8.90;1.00
5136;DHT22;2586;48.710;9.202;2023-03-21T00:41:07;8.80;1.00
5136;DHT22;2586;48.710;9.202;2023-03-21T00:43:33;8.80;1.00
5136;DHT22;2586;48.710;9.202;2023-03-21T00:45:59;8.80;1.00
5136;DHT22;2586;48.710;9.202;2023-03-21T00:48:26;8.80;99.90
5136;DHT22;2586;48.710;9.202;2023-03-21T00:50:53;8.70;1.00
5136;DHT22;2586;48.710;9.202;2023-03-21T00:53:19;8.70;1.00
5136;DHT22;2586;48.710;9.202;2023-03-21T00:55:45;8.70;29.40
5136;DHT22;2586;48.710;9.202;2023-03-21T00:58:11;8.60;99.90
5136;DHT22;2586;48.710;9.202;2023-03-21T01:00:37;8.50;99.90
5136;DHT22;2586;48.710;9.202;2023-03-21T01:03:04;8.50;1.00
5136;DHT22;2586;48.710;9.202;2023-03-21T01:05:35;8.50;99.90
5136;DHT22;2586;48.710;9.202;2023-03-21T01:08:21;8.50;99.90
5136;DHT22;2586;48.710;9.202;2023-03-21T01:10:48;8.40;1.00
5136;DHT22;2586;48.710;9.202;2023-03-21T01:13:17;8.40;1.00
5136;DHT22;2586;48.710;9.202;2023-03-21T01:15:49;8.30;99.90
5136;DHT22;2586;48.710;9.202;2023-03-21T01:18:16;8.30;99.90
5136;DHT22;2586;48.710;9.202;2023-03-21T01:20:43;8.30;45.30
5136;DHT22;2586;48.710;9.202;2023-03-21T01:23:11;8.40;1.00
5136;DHT22;2586;48.710;9.202;2023-03-21T01:25:37;8.40;1.00
5136;DHT22;2586;48.710;9.202;2023-03-21T01:28:04;8.50;1.00
5136;DHT22;2586;48.710;9.202;2023-03-21T01:30:29;8.50;1.00
5136;DHT22;2586;48.710;9.202;2023-03-21T01:32:55;8.50;1.00
5136;DHT22;2586;48.710;9.202;2023-03-21T01:35:21;8.50;1.00
5136;DHT22;2586;48.710;9.202;2023-03-21T01:37:47;8.50;1.00
5136;DHT22;2586;48.710;9.202;2023-03-21T01:40:24;8.50;1.00
5136;DHT22;2586;48.710;9.202;2023-03-21T01:42:50;8.60;1.00
5136;DHT22;2586;48.710;9.202;2023-03-21T01:48:20;8.60;1.00
5136;DHT22;2586;48.710;9.202;2023-03-21T01:50:48;8.60;1.00
5136;DHT22;2586;48.710;9.202;2023-03-21T01:53:15;8.60;1.00
5136;DHT22;2586;48.710;9.202;2023-03-21T01:55:42;8.50;1.00
5136;DHT22;2586;48.710;9.202;2023-03-21T01:58:09;8.60;1.00
5136;DHT22;2586;48.710;9.202;2023-03-21T02:00:35;8.60;1.00
5136;DHT22;2586;48.710;9.202;2023-03-21T02:03:05;8.60;1.00
5136;DHT22;2586;48.710;9.202;2023-03-21T02:05:53;8.60;1.00
5136;DHT22;2586;48.710;9.202;2023-03-21T02:08:22;8.60;99.90
5136;DHT22;2586;48.710;9.202;2023-03-21T02:10:48;8.50;99.90
5136;DHT22;2586;48.710;9.202;2023-03-21T02:13:15;8.40;99.90
5136;DHT22;2586;48.710;9.202;2023-03-21T02:15:47;8.40;99.90
5136;DHT22;2586;48.710;9.202;2023-03-21T02:18:26;8.40;1.00
5136;DHT22;2586;48.710;9.202;2023-03-21T02:24:13;8.40;1.00
5136;DHT22;2586;48.710;9.202;2023-03-21T02:27:09;8.30;1.00
5136;DHT22;2586;48.710;9.202;2023-03-21T02:35:03;8.30;99.90
5136;DHT22;2586;48.710;9.202;2023-03-21T02:37:48;8.30;99.90
5136;DHT22;2586;48.710;9.202;2023-03-21T02:40:26;8.30;93.50
5136;DHT22;2586;48.710;9.202;2023-03-21T02:46:00;8.30;40.50
5136;DHT22;2586;48.710;9.202;2023-03-21T02:48:35;8.30;1.00
5136;DHT22;2586;48.710;9.202;2023-03-21T02:51:04;8.30;1.00
5136;DHT22;2586;48.710;9.202;2023-03-21T02:53:36;8.30;1.00
5136;DHT22;2586;48.710;9.202;2023-03-21T02:56:03;8.30;1.00
5136;DHT22;2586;48.710;9.202;2023-03-21T02:58:35;8.30;1.00
5136;DHT22;2586;48.710;9.202;2023-03-21T03:01:02;8.30;1.00
5136;DHT22;2586;48.710;9.202;2023-03-21T03:03:28;8.30;1.00
5136;DHT22;2586;48.710;9.202;2023-03-21T03:05:56;8.30;1.00
5136;DHT22;2586;48.710;9.202;2023-03-21T03:08:44;8.30;1.00
5136;DHT22;2586;48.710;9.202;2023-03-21T03:11:28;8.30;1.00
5136;DHT22;2586;48.710;9.202;2023-03-21T03:14:49;8.30;1.00
5136;DHT22;2586;48.710;9.202;2023-03-21T03:25:18;8.10;99.90
5136;DHT22;2586;48.710;9.202;2023-03-21T03:27:46;8.10;1.00
5136;DHT22;2586;48.710;9.202;2023-03-21T03:30:14;8.00;99.90
5136;DHT22;2586;48.710;9.202;2023-03-21T03:32:57;8.00;99.90
5136;DHT22;2586;48.710;9.202;2023-03-21T03:35:24;8.00;99.90
5136;DHT22;2586;48.710;9.202;2023-03-21T03:37:54;8.00;99.90
5136;DHT22;2586;48.710;9.202;2023-03-21T03:43:16;8.10;1.00
5136;DHT22;2586;48.710;9.202;2023-03-21T03:45:47;8.10;1.00
5136;DHT22;2586;48.710;9.202;2023-03-21T03:48:18;8.10;1.00
5136;DHT22;2586;48.710;9.202;2023-03-21T03:54:06;8.10;99.90
5136;DHT22;2586;48.710;9.202;2023-03-21T03:56:33;8.10;1.00
5136;DHT22;2586;48.710;9.202;2023-03-21T03:59:01;8.10;1.00
5136;DHT22;2586;48.710;9.202;2023-03-21T04:01:28;8.10;1.00
5136;DHT22;2586;48.710;9.202;2023-03-21T04:03:54;8.10;1.00
5136;DHT22;2586;48.710;9.202;2023-03-21T04:06:20;8.10;1.00
5136;DHT22;2586;48.710;9.202;2023-03-21T04:08:46;8.10;1.00
5136;DHT22;2586;48.710;9.202;2023-03-21T04:11:13;8.10;1.00
5136;DHT22;2586;48.710;9.202;2023-03-21T04:13:40;8.10;1.00
5136;DHT22;2586;48.710;9.202;2023-03-21T04:16:06;8.10;1.00
5136;DHT22;2586;48.710;9.202;2023-03-21T04:18:33;8.10;1.00
5136;DHT22;2586;48.710;9.202;2023-03-21T04:20:58;8.10;1.00
5136;DHT22;2586;48.710;9.202;2023-03-21T04:23:24;8.10;1.00
5136;DHT22;2586;48.710;9.202;2023-03-21T04:25:50;8.10;99.90
5136;DHT22;2586;48.710;9.202;2023-03-21T04:28:16;8.00;99.90
5136;DHT22;2586;48.710;9.202;2023-03-21T04:30:41;8.00;1.00
5136;DHT22;2586;48.710;9.202;2023-03-21T04:33:07;8.00;1.00
5136;DHT22;2586;48.710;9.202;2023-03-21T04:35:33;8.00;1.00
5136;DHT22;2586;48.710;9.202;2023-03-21T04:38:00;7.90;1.00
5136;DHT22;2586;48.710;9.202;2023-03-21T04:40:26;7.90;1.00
5136;DHT22;2586;48.710;9.202;2023-03-21T04:42:52;7.80;1.00
5136;DHT22;2586;48.710;9.202;2023-03-21T04:45:17;7.80;99.90
5136;DHT22;2586;48.710;9.202;2023-03-21T04:47:43;7.70;99.90
5136;DHT22;2586;48.710;9.202;2023-03-21T04:50:10;7.70;99.90
5136;DHT22;2586;48.710;9.202;2023-03-21T04:52:35;7.70;99.90
5136;DHT22;2586;48.710;9.202;2023-03-21T04:55:01;7.60;99.90
5136;DHT22;2586;48.710;9.202;2023-03-21T04:57:27;7.60;99.90
5136;DHT22;2586;48.710;9.202;2023-03-21T04:59:52;7.40;1.00
5136;DHT22;2586;48.710;9.202;2023-03-21T05:02:18;7.30;99.90
5136;DHT22;2586;48.710;9.202;2023-03-21T05:04:43;7.20;99.90
5136;DHT22;2586;48.710;9.202;2023-03-21T05:07:10;7.20;1.00
5136;DHT22;2586;48.710;9.202;2023-03-21T05:09:36;7.00;99.90
5136;DHT22;2586;48.710;9.202;2023-03-21T05:12:02;6.90;99.90
5136;DHT22;2586;48.710;9.202;2023-03-21T05:14:28;6.90;99.90
5136;DHT22;2586;48.710;9.202;2023-03-21T05:16:53;6.80;1.00
5136;DHT22;2586;48.710;9.202;2023-03-21T05:19:29;6.90;99.90
5136;DHT22;2586;48.710;9.202;2023-03-21T05:22:04;6.80;1.00
5136;DHT22;2586;48.710;9.202;2023-03-21T05:24:30;6.80;1.00
5136;DHT22;2586;48.710;9.202;2023-03-21T05:26:58;6.80;40.50
5136;DHT22;2586;48.710;9.202;2023-03-21T05:29:28;6.80;1.00
5136;DHT22;2586;48.710;9.202;2023-03-21T05:31:55;6.80;1.00
5136;DHT22;2586;48.710;9.202;2023-03-21T05:34:21;6.80;1.00
5136;DHT22;2586;48.710;9.202;2023-03-21T05:36:46;6.80;12.30
5136;DHT22;2586;48.710;9.202;2023-03-21T05:39:12;6.80;1.00
5136;DHT22;2586;48.710;9.202;2023-03-21T05:41:37;6.80;1.00
5136;DHT22;2586;48.710;9.202;2023-03-21T05:44:03;6.90;1.00
5136;DHT22;2586;48.710;9.202;2023-03-21T05:46:29;6.90;99.90
5136;DHT22;2586;48.710;9.202;2023-03-21T05:48:54;7.00;99.90
5136;DHT22;2586;48.710;9.202;2023-03-21T05:51:20;7.10;1.00
5136;DHT22;2586;48.710;9.202;2023-03-21T05:53:46;7.10;1.00
5136;DHT22;2586;48.710;9.202;2023-03-21T05:56:11;7.20;1.00
5136;DHT22;2586;48.710;9.202;2023-03-21T05:58:37;7.30;99.90
5136;DHT22;2586;48.710;9.202;2023-03-21T06:01:03;7.30;99.90
5136;DHT22;2586;48.710;9.202;2023-03-21T06:03:28;7.40;99.90
5136;DHT22;2586;48.710;9.202;2023-03-21T06:05:54;7.40;99.90
5136;DHT22;2586;48.710;9.202;2023-03-21T06:08:19;7.40;99.90
5136;DHT22;2586;48.710;9.202;2023-03-21T06:10:45;7.50;36.80
5136;DHT22;2586;48.710;9.202;2023-03-21T06:13:11;7.50;37.10
5136;DHT22;2586;48.710;9.202;2023-03-21T06:15:36;7.50;99.90
5136;DHT22;2586;48.710;9.202;2023-03-21T06:18:02;7.50;99.90
5136;DHT22;2586;48.710;9.202;2023-03-21T06:20:27;7.60;99.90
5136;DHT22;2586;48.710;9.202;2023-03-21T06:22:53;7.60;99.90
5136;DHT22;2586;48.710;9.202;2023-03-21T06:25:18;7.70;99.90
5136;DHT22;2586;48.710;9.202;2023-03-21T06:27:44;7.70;1.00
5136;DHT22;2586;48.710;9.202;2023-03-21T06:30:10;7.80;99.90
5136;DHT22;2586;48.710;9.202;2023-03-21T06:32:36;7.80;8.20
5136;DHT22;2586;48.710;9.202;2023-03-21T06:35:01;7.90;1.00
5136;DHT22;2586;48.710;9.202;2023-03-21T06:37:27;7.90;1.00
5136;DHT22;2586;48.710;9.202;2023-03-21T06:39:53;7.90;1.00
5136;DHT22;2586;48.710;9.202;2023-03-21T06:42:20;7.90;1.00
5136;DHT22;2586;48.710;9.202;2023-03-21T06:44:45;7.90;99.90
5136;DHT22;2586;48.710;9.202;2023-03-21T06:47:11;8.00;99.90
5136;DHT22;2586;48.710;9.202;2023-03-21T06:49:37;8.00;99.90
5136;DHT22;2586;48.710;9.202;2023-03-21T06:52:02;8.00;99.90
5136;DHT22;2586;48.710;9.202;2023-03-21T06:54:28;8.00;99.90
5136;DHT22;2586;48.710;9.202;2023-03-21T06:56:54;8.10;99.90
5136;DHT22;2586;48.710;9.202;2023-03-21T06:59:20;8.10;99.90
5136;DHT22;2586;48.710;9.202;2023-03-21T07:01:45;8.20;99.90
5136;DHT22;2586;48.710;9.202;2023-03-21T07:04:11;8.30;1.00
5136;DHT22;2586;48.710;9.202;2023-03-21T07:06:37;8.20;60.00
5136;DHT22;2586;48.710;9.202;2023-03-21T07:09:04;8.20;99.90
5136;DHT22;2586;48.710;9.202;2023-03-21T07:11:30;8.30;99.90
5136;DHT22;2586;48.710;9.202;2023-03-21T07:13:56;8.50;38.30
5136;DHT22;2586;48.710;9.202;2023-03-21T07:16:21;8.70;1.00
5136;DHT22;2586;48.710;9.202;2023-03-21T07:18:49;9.00;99.90
5136;DHT22;2586;48.710;9.202;2023-03-21T07:21:15;9.30;1.00
5136;DHT22;2586;48.710;9.202;2023-03-21T07:23:40;9.40;99.90
5136;DHT22;2586;48.710;9.202;2023-03-21T07:26:06;9.60;99.90
5136;DHT22;2586;48.710;9.202;2023-03-21T07:28:32;9.70;1.00
5136;DHT22;2586;48.710;9.202;2023-03-21T07:31:00;9.90;1.00
5136;DHT22;2586;48.710;9.202;2023-03-21T07:33:26;10.10;1.00
5136;DHT22;2586;48.710;9.202;2023-03-21T07:35:53;10.10;1.00
5136;DHT22;2586;48.710;9.202;2023-03-21T07:38:20;10.30;1.00
5136;DHT22;2586;48.710;9.202;2023-03-21T07:40:47;10.50;1.00
5136;DHT22;2586;48.710;9.202;2023-03-21T07:43:13;10.60;1.00
5136;DHT22;2586;48.710;9.202;2023-03-21T07:45:39;11.00;1.00
5136;DHT22;2586;48.710;9.202;2023-03-21T07:48:07;11.30;99.90
5136;DHT22;2586;48.710;9.202;2023-03-21T07:50:33;11.30;99.90
5136;DHT22;2586;48.710;9.202;2023-03-21T07:52:58;11.60;99.90
5136;DHT22;2586;48.710;9.202;2023-03-21T07:55:25;11.80;99.90
5136;DHT22;2586;48.710;9.202;2023-03-21T07:57:51;11.80;99.90
5136;DHT22;2586;48.710;9.202;2023-03-21T08:00:18;11.70;99.90
5136;DHT22;2586;48.710;9.202;2023-03-21T08:02:54;11.70;99.90
5136;DHT22;2586;48.710;9.202;2023-03-21T08:05:28;11.70;99.90
5136;DHT22;2586;48.710;9.202;2023-03-21T08:07:55;12.20;99.90
5136;DHT22;2586;48.710;9.202;2023-03-21T08:10:20;12.60;99.90
5136;DHT22;2586;48.710;9.202;2023-03-21T08:12:46;12.80;99.90
5136;DHT22;2586;48.710;9.202;2023-03-21T08:15:13;13.10;99.90
5136;DHT22;2586;48.710;9.202;2023-03-21T08:17:39;13.20;99.90
5136;DHT22;2586;48.710;9.202;2023-03-21T08:20:06;12.60;99.90
5136;DHT22;2586;48.710;9.202;2023-03-21T08:22:34;12.50;99.90
5136;DHT22;2586;48.710;9.202;2023-03-21T08:25:00;12.80;99.90
5136;DHT22;2586;48.710;9.202;2023-03-21T08:27:26;13.20;99.90
5136;DHT22;2586;48.710;9.202;2023-03-21T08:29:51;13.40;99.90
5136;DHT22;2586;48.710;9.202;2023-03-21T08:32:17;13.50;97.80
5136;DHT22;2586;48.710;9.202;2023-03-21T08:34:44;13.90;93.30
5136;DHT22;2586;48.710;9.202;2023-03-21T08:37:09;14.40;68.20
5136;DHT22;2586;48.710;9.202;2023-03-21T08:39:35;14.80;60.50
5136;DHT22;2586;48.710;9.202;2023-03-21T08:42:01;14.90;30.20
5136;DHT22;2586;48.710;9.202;2023-03-21T08:44:26;14.80;22.70
5136;DHT22;2586;48.710;9.202;2023-03-21T08:46:52;14.40;19.80
5136;DHT22;2586;48.710;9.202;2023-03-21T08:49:17;14.30;13.70
5136;DHT22;2586;48.710;9.202;2023-03-21T08:51:43;14.80;14.30
5136;DHT22;2586;48.710;9.202;2023-03-21T08:54:20;14.90;1.00
5136;DHT22;2586;48.710;9.202;2023-03-21T08:56:46;14.90;1.00
5136;DHT22;2586;48.710;9.202;2023-03-21T08:59:12;15.40;1.00
5136;DHT22;2586;48.710;9.202;2023-03-21T09:01:37;15.50;1.00
5136;DHT22;2586;48.710;9.202;2023-03-21T09:04:03;15.40;1.00
5136;DHT22;2586;48.710;9.202;2023-03-21T09:06:32;15.80;1.00
5136;DHT22;2586;48.710;9.202;2023-03-21T09:08:58;15.50;1.00
5136;DHT22;2586;48.710;9.202;2023-03-21T09:11:24;15.40;1.00
5136;DHT22;2586;48.710;9.202;2023-03-21T09:13:49;15.70;1.00
5136;DHT22;2586;48.710;9.202;2023-03-21T09:16:15;16.00;1.00
5136;DHT22;2586;48.710;9.202;2023-03-21T09:18:41;16.00;1.00
5136;DHT22;2586;48.710;9.202;2023-03-21T09:21:09;16.60;1.00
5136;DHT22;2586;48.710;9.202;2023-03-21T09:23:38;16.50;1.00
5136;DHT22;2586;48.710;9.202;2023-03-21T09:26:05;16.60;1.00
5136;DHT22;2586;48.710;9.202;2023-03-21T09:28:31;16.80;1.00
5136;DHT22;2586;48.710;9.202;2023-03-21T09:30:58;16.40;1.00
5136;DHT22;2586;48.710;9.202;2023-03-21T09:33:24;15.80;1.00
5136;DHT22;2586;48.710;9.202;2023-03-21T09:35:52;15.60;1.00
5136;DHT22;2586;48.710;9.202;2023-03-21T09:38:18;15.60;1.00
5136;DHT22;2586;48.710;9.202;2023-03-21T09:41:04;15.80;1.00
5136;DHT22;2586;48.710;9.202;2023-03-21T09:49:21;17.30;1.00
5136;DHT22;2586;48.710;9.202;2023-03-21T09:51:50;17.90;1.00
5136;DHT22;2586;48.710;9.202;2023-03-21T09:54:24;18.10;1.00
5136;DHT22;2586;48.710;9.202;2023-03-21T09:56:53;18.50;1.00
5136;DHT22;2586;48.710;9.202;2023-03-21T09:59:35;18.70;1.00
5136;DHT22;2586;48.710;9.202;2023-03-21T10:05:17;19.10;1.00
5136;DHT22;2586;48.710;9.202;2023-03-21T10:10:29;18.50;1.00
5136;DHT22;2586;48.710;9.202;2023-03-21T10:12:55;18.20;1.00
5136;DHT22;2586;48.710;9.202;2023-03-21T10:15:24;18.40;1.00
5136;DHT22;2586;48.710;9.202;2023-03-21T10:17:55;18.60;1.00
5136;DHT22;2586;48.710;9.202;2023-03-21T10:20:24;18.30;1.00
5136;DHT22;2586;48.710;9.202;2023-03-21T10:22:53;18.50;1.00
5136;DHT22;2586;48.710;9.202;2023-03-21T10:25:24;19.10;1.00
5136;DHT22;2586;48.710;9.202;2023-03-21T10:27:50;18.90;1.00
5136;DHT22;2586;48.710;9.202;2023-03-21T10:30:29;18.30;1.00
5136;DHT22;2586;48.710;9.202;2023-03-21T10:32:59;18.90;1.00
5136;DHT22;2586;48.710;9.202;2023-03-21T10:35:29;19.00;1.00
5136;DHT22;2586;48.710;9.202;2023-03-21T10:37:58;18.80;1.00
5136;DHT22;2586;48.710;9.202;2023-03-21T10:40:25;18.90;1.00
5136;DHT22;2586;48.710;9.202;2023-03-21T10:42:52;19.20;1.00
5136;DHT22;2586;48.710;9.202;2023-03-21T10:45:19;19.30;1.00
5136;DHT22;2586;48.710;9.202;2023-03-21T10:47:47;19.30;1.00
5136;DHT22;2586;48.710;9.202;2023-03-21T10:50:16;19.20;1.00
5136;DHT22;2586;48.710;9.202;2023-03-21T10:52:48;18.90;1.00
5136;DHT22;2586;48.710;9.202;2023-03-21T10:55:32;18.30;1.00
5136;DHT22;2586;48.710;9.202;2023-03-21T10:58:13;18.00;1.00
5136;DHT22;2586;48.710;9.202;2023-03-21T11:00:44;18.10;1.00
5136;DHT22;2586;48.710;9.202;2023-03-21T11:03:29;17.40;1.00
5136;DHT22;2586;48.710;9.202;2023-03-21T11:06:04;17.60;1.00
5136;DHT22;2586;48.710;9.202;2023-03-21T11:08:49;17.40;1.00
5136;DHT22;2586;48.710;9.202;2023-03-21T11:11:27;17.60;1.00
5136;DHT22;2586;48.710;9.202;2023-03-21T11:13:58;17.60;1.00
5136;DHT22;2586;48.710;9.202;2023-03-21T11:16:38;17.60;1.00
5136;DHT22;2586;48.710;9.202;2023-03-21T11:19:17;17.30;1.00
5136;DHT22;2586;48.710;9.202;2023-03-21T11:21:43;16.90;1.00
5136;DHT22;2586;48.710;9.202;2023-03-21T11:24:14;17.00;1.00
5136;DHT22;2586;48.710;9.202;2023-03-21T11:26:43;16.90;1.00
5136;DHT22;2586;48.710;9.202;2023-03-21T11:32:08;17.00;1.00
5136;DHT22;2586;48.710;9.202;2023-03-21T11:34:57;16.70;1.00
5136;DHT22;2586;48.710;9.202;2023-03-21T11:42:55;17.00;1.00
5136;DHT22;2586;48.710;9.202;2023-03-21T11:45:26;17.00;1.00
5136;DHT22;2586;48.710;9.202;2023-03-21T11:47:58;16.90;1.00
5136;DHT22;2586;48.710;9.202;2023-03-21T11:50:31;16.80;1.00
5136;DHT22;2586;48.710;9.202;2023-03-21T12:04:51;15.80;1.00
5136;DHT22;2586;48.710;9.202;2023-03-21T12:07:38;15.90;1.00
5136;DHT22;2586;48.710;9.202;2023-03-21T12:23:48;15.90;1.00
5136;DHT22;2586;48.710;9.202;2023-03-21T12:29:21;16.10;1.00
5136;DHT22;2586;48.710;9.202;2023-03-21T12:37:16;16.20;1.00
5136;DHT22;2586;48.710;9.202;2023-03-21T12:39:47;16.00;1.00
5136;DHT22;2586;48.710;9.202;2023-03-21T12:44:50;16.00;1.00
5136;DHT22;2586;48.710;9.202;2023-03-21T12:47:23;16.00;1.00
5136;DHT22;2586;48.710;9.202;2023-03-21T12:50:04;16.30;1.00
5136;DHT22;2586;48.710;9.202;2023-03-21T12:52:37;16.30;1.00
5136;DHT22;2586;48.710;9.202;2023-03-21T12:55:06;16.60;1.00
5136;DHT22;2586;48.710;9.202;2023-03-21T12:57:39;16.60;1.00
5136;DHT22;2586;48.710;9.202;2023-03-21T13:00:16;16.70;1.00
5136;DHT22;2586;48.710;9.202;2023-03-21T13:02:59;16.80;1.00
5136;DHT22;2586;48.710;9.202;2023-03-21T13:10:27;17.70;1.00
5136;DHT22;2586;48.710;9.202;2023-03-21T13:13:09;17.60;1.00
5136;DHT22;2586;48.710;9.202;2023-03-21T13:15:51;17.70;1.00
5136;DHT22;2586;48.710;9.202;2023-03-21T13:18:40;17.90;1.00
5136;DHT22;2586;48.710;9.202;2023-03-21T13:21:15;18.00;1.00
5136;DHT22;2586;48.710;9.202;2023-03-21T13:23:57;18.20;1.00
5136;DHT22;2586;48.710;9.202;2023-03-21T13:26:32;18.00;1.00
5136;DHT22;2586;48.710;9.202;2023-03-21T13:28:58;17.90;1.00
5136;DHT22;2586;48.710;9.202;2023-03-21T13:31:25;17.90;1.00
5136;DHT22;2586;48.710;9.202;2023-03-21T13:33:58;18.00;1.00
5136;DHT22;2586;48.710;9.202;2023-03-21T13:36:29;18.10;1.00
5136;DHT22;2586;48.710;9.202;2023-03-21T13:39:03;18.40;1.00
5136;DHT22;2586;48.710;9.202;2023-03-21T13:41:37;18.20;1.00
5136;DHT22;2586;48.710;9.202;2023-03-21T13:48:57;18.00;1.00
5136;DHT22;2586;48.710;9.202;2023-03-21T13:59:10;17.80;1.00
5136;DHT22;2586;48.710;9.202;2023-03-21T14:01:40;17.70;1.00
5136;DHT22;2586;48.710;9.202;2023-03-21T14:04:13;17.70;1.00
5136;DHT22;2586;48.710;9.202;2023-03-21T14:09:40;17.30;1.00
5136;DHT22;2586;48.710;9.202;2023-03-21T14:12:21;17.40;1.00
5136;DHT22;2586;48.710;9.202;2023-03-21T14:17:30;17.20;1.00
5136;DHT22;2586;48.710;9.202;2023-03-21T14:20:05;17.00;1.00
5136;DHT22;2586;48.710;9.202;2023-03-21T14:22:39;17.00;1.00
5136;DHT22;2586;48.710;9.202;2023-03-21T14:25:10;16.90;1.00
5136;DHT22;2586;48.710;9.202;2023-03-21T14:27:37;16.80;1.00
5136;DHT22;2586;48.710;9.202;2023-03-21T14:30:09;16.80;1.00
5136;DHT22;2586;48.710;9.202;2023-03-21T14:32:36;16.80;1.00
5136;DHT22;2586;48.710;9.202;2023-03-21T14:35:02;16.80;1.00
5136;DHT22;2586;48.710;9.202;2023-03-21T14:37:36;16.80;1.00
5136;DHT22;2586;48.710;9.202;2023-03-21T14:40:06;16.90;1.00
5136;DHT22;2586;48.710;9.202;2023-03-21T14:42:36;16.80;1.00
5136;DHT22;2586;48.710;9.202;2023-03-21T14:45:23;16.90;1.00
5136;DHT22;2586;48.710;9.202;2023-03-21T14:47:59;17.00;1.00
5136;DHT22;2586;48.710;9.202;2023-03-21T14:53:22;17.00;1.00
5136;DHT22;2586;48.710;9.202;2023-03-21T14:56:00;16.90;1.00
5136;DHT22;2586;48.710;9.202;2023-03-21T14:58:27;16.80;1.00
5136;DHT22;2586;48.710;9.202;2023-03-21T15:00:57;16.70;1.00
5136;DHT22;2586;48.710;9.202;2023-03-21T15:03:25;16.80;1.00
5136;DHT22;2586;48.710;9.202;2023-03-21T15:05:53;16.90;1.00
5136;DHT22;2586;48.710;9.202;2023-03-21T15:08:21;17.10;1.00
5136;DHT22;2586;48.710;9.202;2023-03-21T15:10:58;17.20;1.00
5136;DHT22;2586;48.710;9.202;2023-03-21T15:13:27;17.50;1.00
5136;DHT22;2586;48.710;9.202;2023-03-21T15:15:53;17.90;1.00
5136;DHT22;2586;48.710;9.202;2023-03-21T15:18:34;18.10;1.00
5136;DHT22;2586;48.710;9.202;2023-03-21T15:21:23;18.60;1.00
5136;DHT22;2586;48.710;9.202;2023-03-21T15:23:55;19.10;1.00
5136;DHT22;2586;48.710;9.202;2023-03-21T15:26:24;19.50;1.00
5136;DHT22;2586;48.710;9.202;2023-03-21T15:28:56;19.80;1.00
5136;DHT22;2586;48.710;9.202;2023-03-21T15:31:35;20.30;1.00
5136;DHT22;2586;48.710;9.202;2023-03-21T15:34:02;20.50;1.00
5136;DHT22;2586;48.710;9.202;2023-03-21T15:36:36;20.30;1.00
5136;DHT22;2586;48.710;9.202;2023-03-21T15:39:12;20.00;1.00
5136;DHT22;2586;48.710;9.202;2023-03-21T15:41:38;20.00;1.00
5136;DHT22;2586;48.710;9.202;2023-03-21T15:44:11;20.30;1.00
5136;DHT22;2586;48.710;9.202;2023-03-21T15:46:45;20.00;1.00
5136;DHT22;2586;48.710;9.202;2023-03-21T15:54:29;18.40;1.00
5136;DHT22;2586;48.710;9.202;2023-03-21T15:56:57;18.10;1.00
5136;DHT22;2586;48.710;9.202;2023-03-21T15:59:29;17.60;1.00
5136;DHT22;2586;48.710;9.202;2023-03-21T16:01:55;17.20;1.00
5136;DHT22;2586;48.710;9.202;2023-03-21T16:04:22;17.00;1.00
5136;DHT22;2586;48.710;9.202;2023-03-21T16:07:00;16.70;1.00
5136;DHT22;2586;48.710;9.202;2023-03-21T16:09:27;16.30;1.00
5136;DHT22;2586;48.710;9.202;2023-03-21T16:12:02;16.00;1.00
5136;DHT22;2586;48.710;9.202;2023-03-21T16:14:27;15.90;1.00
5136;DHT22;2586;48.710;9.202;2023-03-21T16:16:54;15.70;1.00
5136;DHT22;2586;48.710;9.202;2023-03-21T16:19:20;15.50;1.00
5136;DHT22;2586;48.710;9.202;2023-03-21T16:21:46;15.40;1.00
5136;DHT22;2586;48.710;9.202;2023-03-21T16:24:12;15.20;1.00
5136;DHT22;2586;48.710;9.202;2023-03-21T16:26:47;15.20;1.00
5136;DHT22;2586;48.710;9.202;2023-03-21T16:29:17;15.10;1.00
5136;DHT22;2586;48.710;9.202;2023-03-21T16:31:46;14.90;1.00
5136;DHT22;2586;48.710;9.202;2023-03-21T16:34:12;14.90;1.00
5136;DHT22;2586;48.710;9.202;2023-03-21T16:36:39;14.80;1.00
5136;DHT22;2586;48.710;9.202;2023-03-21T16:39:19;14.70;1.00
5136;DHT22;2586;48.710;9.202;2023-03-21T16:41:46;14.70;1.00
5136;DHT22;2586;48.710;9.202;2023-03-21T16:44:12;14.60;1.00
5136;DHT22;2586;48.710;9.202;2023-03-21T16:46:37;14.50;1.00
5136;DHT22;2586;48.710;9.202;2023-03-21T16:49:03;14.40;1.00
5136;DHT22;2586;48.710;9.202;2023-03-21T16:51:34;14.40;1.00
5136;DHT22;2586;48.710;9.202;2023-03-21T16:54:01;14.40;1.00
5136;DHT22;2586;48.710;9.202;2023-03-21T16:56:36;14.30;1.00
5136;DHT22;2586;48.710;9.202;2023-03-21T16:59:03;14.20;1.00
5136;DHT22;2586;48.710;9.202;2023-03-21T17:01:30;14.20;1.00
5136;DHT22;2586;48.710;9.202;2023-03-21T17:03:56;14.10;1.00
5136;DHT22;2586;48.710;9.202;2023-03-21T17:06:25;14.00;1.00
5136;DHT22;2586;48.710;9.202;2023-03-21T17:08:51;14.00;1.00
5136;DHT22;2586;48.710;9.202;2023-03-21T17:11:20;14.00;1.00
5136;DHT22;2586;48.710;9.202;2023-03-21T17:13:50;13.90;1.00
5136;DHT22;2586;48.710;9.202;2023-03-21T17:16:19;13.80;1.00
5136;DHT22;2586;48.710;9.202;2023-03-21T17:18:46;13.70;1.00
5136;DHT22;2586;48.710;9.202;2023-03-21T17:21:18;13.70;1.00
5136;DHT22;2586;48.710;9.202;2023-03-21T17:23:44;13.70;1.00
5136;DHT22;2586;48.710;9.202;2023-03-21T17:26:12;13.60;1.00
5136;DHT22;2586;48.710;9.202;2023-03-21T17:28:39;13.60;1.00
5136;DHT22;2586;48.710;9.202;2023-03-21T17:31:17;13.60;1.00
5136;DHT22;2586;48.710;9.202;2023-03-21T17:33:44;13.60;1.00
5136;DHT22;2586;48.710;9.202;2023-03-21T17:36:14;13.60;1.00
5136;DHT22;2586;48.710;9.202;2023-03-21T17:38:41;13.50;1.00
5136;DHT22;2586;48.710;9.202;2023-03-21T17:41:15;13.50;1.00
5136;DHT22;2586;48.710;9.202;2023-03-21T17:43:42;13.50;2.00
5136;DHT22;2586;48.710;9.202;2023-03-21T17:46:15;13.40;10.80
5136;DHT22;2586;48.710;9.202;2023-03-21T17:48:42;13.40;9.90
5136;DHT22;2586;48.710;9.202;2023-03-21T17:51:08;13.30;11.20
5136;DHT22;2586;48.710;9.202;2023-03-21T17:53:39;13.30;11.80
5136;DHT22;2586;48.710;9.202;2023-03-21T17:56:05;13.30;15.40
5136;DHT22;2586;48.710;9.202;2023-03-21T17:58:31;13.30;14.90
5136;DHT22;2586;48.710;9.202;2023-03-21T18:00:57;13.30;16.50
5136;DHT22;2586;48.710;9.202;2023-03-21T18:03:23;13.20;21.10
5136;DHT22;2586;48.710;9.202;2023-03-21T18:05:48;13.20;24.50
5136;DHT22;2586;48.710;9.202;2023-03-21T18:08:14;13.20;25.00
5136;DHT22;2586;48.710;9.202;2023-03-21T18:10:40;13.20;29.60
5136;DHT22;2586;48.710;9.202;2023-03-21T18:13:05;13.20;26.70
5136;DHT22;2586;48.710;9.202;2023-03-21T18:15:31;13.10;24.70
5136;DHT22;2586;48.710;9.202;2023-03-21T18:17:57;13.10;47.50
5136;DHT22;2586;48.710;9.202;2023-03-21T18:20:24;13.00;99.90
5136;DHT22;2586;48.710;9.202;2023-03-21T18:22:52;12.90;99.90
5136;DHT22;2586;48.710;9.202;2023-03-21T18:25:18;12.80;99.90
5136;DHT22;2586;48.710;9.202;2023-03-21T18:27:43;12.90;99.90
5136;DHT22;2586;48.710;9.202;2023-03-21T18:30:13;12.80;99.90